Acadiana Regional Airport New Iberia US
ICAO: KARA
IATA: ARA
Category: Medium
Scheduled Services: No

Elevation: 24 ft
TransAlt. 18000 ft.

Airport Communications:
LAFAYETTE APP/DEP:121.1
CLNC DEL:121.7
CTAF:125
GND:121.7
TWR:125
UNICOM:122.95

KARA Zoom In..

Runways:

(A) RW 16 length 8002 ft width 200 ft
---- / hdg 165

(B) RW 34 length 8002 ft width 200 ft
ILS 108.90 / hdg 345

Location; KARA
Day. 23 / Time. 09.53 Zulu
* Altimeter: 29.86
* Temperature: 28° c. 82.4°f.
* Wind from: 310° Speed 03 kn.
Dewpoint: 25° c.
Visibility: 10 Statute Miles.
Clouds: Clear (automated report).

KARA 230953Z AUTO 31003KT 10SM CLR 28/25 A2986 RMK AO2 RAB32E44 SLP109 P0000 T02780250 $


Wind From 310°
Speed 03 kn.

 
 
jpsmedia.com for Web Design worldairports.se 2018   terms of use